sensor_id;sensor_type;location;lat;lon;timestamp;P1;durP1;ratioP1;P2;durP2;ratioP2
22543;SDS011;11438;52.044;8.716;2024-01-11T00:00:29;31.50;;;14.93;;
22543;SDS011;11438;52.044;8.716;2024-01-11T00:02:55;33.63;;;15.27;;
22543;SDS011;11438;52.044;8.716;2024-01-11T00:05:21;28.90;;;14.13;;
22543;SDS011;11438;52.044;8.716;2024-01-11T00:07:47;30.63;;;15.07;;
22543;SDS011;11438;52.044;8.716;2024-01-11T00:10:13;28.27;;;14.60;;
22543;SDS011;11438;52.044;8.716;2024-01-11T00:12:38;30.27;;;15.40;;
22543;SDS011;11438;52.044;8.716;2024-01-11T00:15:04;28.43;;;15.30;;
22543;SDS011;11438;52.044;8.716;2024-01-11T00:17:29;29.80;;;15.23;;
22543;SDS011;11438;52.044;8.716;2024-01-11T00:19:55;31.87;;;15.83;;
22543;SDS011;11438;52.044;8.716;2024-01-11T00:22:20;26.37;;;14.43;;
22543;SDS011;11438;52.044;8.716;2024-01-11T00:24:46;33.97;;;16.30;;
22543;SDS011;11438;52.044;8.716;2024-01-11T00:27:11;27.17;;;15.87;;
22543;SDS011;11438;52.044;8.716;2024-01-11T00:29:37;26.57;;;14.10;;
22543;SDS011;11438;52.044;8.716;2024-01-11T00:32:02;31.93;;;15.50;;
22543;SDS011;11438;52.044;8.716;2024-01-11T00:34:28;32.20;;;16.13;;
22543;SDS011;11438;52.044;8.716;2024-01-11T00:36:53;29.63;;;15.37;;
22543;SDS011;11438;52.044;8.716;2024-01-11T00:39:19;28.87;;;14.63;;
22543;SDS011;11438;52.044;8.716;2024-01-11T00:41:44;32.97;;;15.03;;
22543;SDS011;11438;52.044;8.716;2024-01-11T00:44:10;27.40;;;14.67;;
22543;SDS011;11438;52.044;8.716;2024-01-11T00:46:35;29.07;;;15.07;;
22543;SDS011;11438;52.044;8.716;2024-01-11T00:49:03;29.57;;;15.37;;
22543;SDS011;11438;52.044;8.716;2024-01-11T00:51:28;25.80;;;14.77;;
22543;SDS011;11438;52.044;8.716;2024-01-11T00:53:54;36.23;;;17.23;;
22543;SDS011;11438;52.044;8.716;2024-01-11T00:56:19;31.07;;;15.00;;
22543;SDS011;11438;52.044;8.716;2024-01-11T00:58:45;36.33;;;16.03;;
22543;SDS011;11438;52.044;8.716;2024-01-11T01:01:11;28.37;;;15.73;;
22543;SDS011;11438;52.044;8.716;2024-01-11T01:03:37;31.53;;;15.90;;
22543;SDS011;11438;52.044;8.716;2024-01-11T01:06:03;32.47;;;16.20;;
22543;SDS011;11438;52.044;8.716;2024-01-11T01:08:29;26.97;;;14.77;;
22543;SDS011;11438;52.044;8.716;2024-01-11T01:10:54;28.13;;;14.70;;
22543;SDS011;11438;52.044;8.716;2024-01-11T01:13:20;31.40;;;15.53;;
22543;SDS011;11438;52.044;8.716;2024-01-11T01:15:46;29.13;;;15.43;;
22543;SDS011;11438;52.044;8.716;2024-01-11T01:18:11;30.47;;;15.80;;
22543;SDS011;11438;52.044;8.716;2024-01-11T01:20:37;29.27;;;15.70;;
22543;SDS011;11438;52.044;8.716;2024-01-11T01:23:02;32.30;;;17.23;;
22543;SDS011;11438;52.044;8.716;2024-01-11T01:25:28;33.23;;;16.03;;
22543;SDS011;11438;52.044;8.716;2024-01-11T01:27:54;32.07;;;16.07;;
22543;SDS011;11438;52.044;8.716;2024-01-11T01:30:20;30.13;;;15.03;;
22543;SDS011;11438;52.044;8.716;2024-01-11T01:32:47;29.70;;;15.00;;
22543;SDS011;11438;52.044;8.716;2024-01-11T01:35:12;31.30;;;15.23;;
22543;SDS011;11438;52.044;8.716;2024-01-11T01:37:38;28.83;;;15.20;;
22543;SDS011;11438;52.044;8.716;2024-01-11T01:40:03;30.83;;;15.87;;
22543;SDS011;11438;52.044;8.716;2024-01-11T01:42:30;26.73;;;14.27;;
22543;SDS011;11438;52.044;8.716;2024-01-11T01:44:55;29.07;;;14.63;;
22543;SDS011;11438;52.044;8.716;2024-01-11T01:47:21;29.33;;;15.40;;
22543;SDS011;11438;52.044;8.716;2024-01-11T01:49:47;31.23;;;16.03;;
22543;SDS011;11438;52.044;8.716;2024-01-11T01:52:14;32.40;;;15.80;;
22543;SDS011;11438;52.044;8.716;2024-01-11T01:54:41;32.97;;;14.93;;
22543;SDS011;11438;52.044;8.716;2024-01-11T01:57:07;29.43;;;15.57;;
22543;SDS011;11438;52.044;8.716;2024-01-11T01:59:35;31.37;;;15.53;;
22543;SDS011;11438;52.044;8.716;2024-01-11T02:02:02;30.90;;;15.47;;
22543;SDS011;11438;52.044;8.716;2024-01-11T02:04:28;30.27;;;15.97;;
22543;SDS011;11438;52.044;8.716;2024-01-11T02:06:54;30.87;;;16.73;;
22543;SDS011;11438;52.044;8.716;2024-01-11T02:09:20;30.83;;;15.60;;
22543;SDS011;11438;52.044;8.716;2024-01-11T02:11:47;29.67;;;15.60;;
22543;SDS011;11438;52.044;8.716;2024-01-11T02:14:13;31.43;;;15.87;;
22543;SDS011;11438;52.044;8.716;2024-01-11T02:16:38;32.90;;;16.20;;
22543;SDS011;11438;52.044;8.716;2024-01-11T02:19:07;29.77;;;15.57;;
22543;SDS011;11438;52.044;8.716;2024-01-11T02:21:37;37.40;;;16.47;;
22543;SDS011;11438;52.044;8.716;2024-01-11T02:24:03;29.43;;;15.77;;
22543;SDS011;11438;52.044;8.716;2024-01-11T02:26:30;29.37;;;15.10;;
22543;SDS011;11438;52.044;8.716;2024-01-11T02:28:56;29.50;;;15.60;;
22543;SDS011;11438;52.044;8.716;2024-01-11T02:31:21;32.40;;;16.53;;
22543;SDS011;11438;52.044;8.716;2024-01-11T02:33:47;29.47;;;15.43;;
22543;SDS011;11438;52.044;8.716;2024-01-11T02:36:13;30.73;;;15.47;;
22543;SDS011;11438;52.044;8.716;2024-01-11T02:38:38;29.47;;;15.40;;
22543;SDS011;11438;52.044;8.716;2024-01-11T02:41:06;30.13;;;15.17;;
22543;SDS011;11438;52.044;8.716;2024-01-11T02:43:33;30.37;;;15.83;;
22543;SDS011;11438;52.044;8.716;2024-01-11T02:46:00;26.07;;;14.37;;
22543;SDS011;11438;52.044;8.716;2024-01-11T02:48:27;27.87;;;15.47;;
22543;SDS011;11438;52.044;8.716;2024-01-11T02:50:53;27.13;;;14.77;;
22543;SDS011;11438;52.044;8.716;2024-01-11T02:53:19;32.33;;;16.13;;
22543;SDS011;11438;52.044;8.716;2024-01-11T02:55:45;30.70;;;16.10;;
22543;SDS011;11438;52.044;8.716;2024-01-11T02:58:10;30.60;;;15.53;;
22543;SDS011;11438;52.044;8.716;2024-01-11T03:00:36;31.37;;;15.80;;
22543;SDS011;11438;52.044;8.716;2024-01-11T03:03:01;31.00;;;16.53;;
22543;SDS011;11438;52.044;8.716;2024-01-11T03:05:27;35.23;;;16.60;;
22543;SDS011;11438;52.044;8.716;2024-01-11T03:07:53;30.07;;;15.60;;
22543;SDS011;11438;52.044;8.716;2024-01-11T03:10:18;31.77;;;15.63;;
22543;SDS011;11438;52.044;8.716;2024-01-11T03:12:43;29.50;;;16.33;;
22543;SDS011;11438;52.044;8.716;2024-01-11T03:15:09;33.37;;;15.97;;
22543;SDS011;11438;52.044;8.716;2024-01-11T03:17:35;34.93;;;15.90;;
22543;SDS011;11438;52.044;8.716;2024-01-11T03:20:00;31.67;;;16.13;;
22543;SDS011;11438;52.044;8.716;2024-01-11T03:22:26;37.07;;;16.33;;
22543;SDS011;11438;52.044;8.716;2024-01-11T03:24:51;32.47;;;16.57;;
22543;SDS011;11438;52.044;8.716;2024-01-11T03:27:17;28.23;;;16.67;;
22543;SDS011;11438;52.044;8.716;2024-01-11T03:29:43;32.83;;;15.63;;
22543;SDS011;11438;52.044;8.716;2024-01-11T03:32:08;31.93;;;16.47;;
22543;SDS011;11438;52.044;8.716;2024-01-11T03:34:37;31.33;;;15.83;;
22543;SDS011;11438;52.044;8.716;2024-01-11T03:37:03;29.00;;;16.03;;
22543;SDS011;11438;52.044;8.716;2024-01-11T03:39:28;32.10;;;16.23;;
22543;SDS011;11438;52.044;8.716;2024-01-11T03:41:54;30.13;;;15.83;;
22543;SDS011;11438;52.044;8.716;2024-01-11T03:44:19;32.40;;;16.93;;
22543;SDS011;11438;52.044;8.716;2024-01-11T03:46:45;35.80;;;16.53;;
22543;SDS011;11438;52.044;8.716;2024-01-11T03:49:11;30.37;;;15.90;;
22543;SDS011;11438;52.044;8.716;2024-01-11T03:51:37;32.63;;;15.70;;
22543;SDS011;11438;52.044;8.716;2024-01-11T03:54:02;30.93;;;16.20;;
22543;SDS011;11438;52.044;8.716;2024-01-11T03:56:28;30.63;;;16.37;;
22543;SDS011;11438;52.044;8.716;2024-01-11T03:58:54;34.43;;;16.60;;
22543;SDS011;11438;52.044;8.716;2024-01-11T04:01:19;32.10;;;15.63;;
22543;SDS011;11438;52.044;8.716;2024-01-11T04:03:45;32.17;;;17.43;;
22543;SDS011;11438;52.044;8.716;2024-01-11T04:06:18;33.63;;;16.43;;
22543;SDS011;11438;52.044;8.716;2024-01-11T04:08:47;30.20;;;15.23;;
22543;SDS011;11438;52.044;8.716;2024-01-11T04:11:13;30.10;;;15.53;;
22543;SDS011;11438;52.044;8.716;2024-01-11T04:13:39;31.13;;;15.50;;
22543;SDS011;11438;52.044;8.716;2024-01-11T04:16:05;32.90;;;15.43;;
22543;SDS011;11438;52.044;8.716;2024-01-11T04:18:31;32.37;;;15.80;;
22543;SDS011;11438;52.044;8.716;2024-01-11T04:20:57;32.43;;;15.37;;
22543;SDS011;11438;52.044;8.716;2024-01-11T04:23:22;33.67;;;15.93;;
22543;SDS011;11438;52.044;8.716;2024-01-11T04:25:48;31.53;;;15.93;;
22543;SDS011;11438;52.044;8.716;2024-01-11T04:28:15;30.77;;;15.40;;
22543;SDS011;11438;52.044;8.716;2024-01-11T04:30:41;35.10;;;16.73;;
22543;SDS011;11438;52.044;8.716;2024-01-11T04:33:06;29.30;;;15.07;;
22543;SDS011;11438;52.044;8.716;2024-01-11T04:35:32;38.10;;;18.03;;
22543;SDS011;11438;52.044;8.716;2024-01-11T04:37:57;33.40;;;15.73;;
22543;SDS011;11438;52.044;8.716;2024-01-11T04:40:23;29.67;;;15.30;;
22543;SDS011;11438;52.044;8.716;2024-01-11T04:42:48;31.17;;;16.60;;
22543;SDS011;11438;52.044;8.716;2024-01-11T04:45:14;30.23;;;16.60;;
22543;SDS011;11438;52.044;8.716;2024-01-11T04:47:39;31.90;;;16.33;;
22543;SDS011;11438;52.044;8.716;2024-01-11T04:50:06;33.13;;;16.47;;
22543;SDS011;11438;52.044;8.716;2024-01-11T04:52:32;30.07;;;15.70;;
22543;SDS011;11438;52.044;8.716;2024-01-11T04:54:57;30.33;;;16.90;;
22543;SDS011;11438;52.044;8.716;2024-01-11T04:57:23;29.40;;;16.00;;
22543;SDS011;11438;52.044;8.716;2024-01-11T04:59:48;35.20;;;17.67;;
22543;SDS011;11438;52.044;8.716;2024-01-11T05:02:14;32.60;;;16.07;;
22543;SDS011;11438;52.044;8.716;2024-01-11T05:04:39;30.93;;;15.23;;
22543;SDS011;11438;52.044;8.716;2024-01-11T05:07:05;32.43;;;16.67;;
22543;SDS011;11438;52.044;8.716;2024-01-11T05:09:30;30.53;;;15.77;;
22543;SDS011;11438;52.044;8.716;2024-01-11T05:11:55;31.73;;;15.13;;
22543;SDS011;11438;52.044;8.716;2024-01-11T05:14:21;29.80;;;16.53;;
22543;SDS011;11438;52.044;8.716;2024-01-11T05:16:46;35.20;;;16.80;;
22543;SDS011;11438;52.044;8.716;2024-01-11T05:19:12;32.70;;;16.90;;
22543;SDS011;11438;52.044;8.716;2024-01-11T05:21:37;31.03;;;16.70;;
22543;SDS011;11438;52.044;8.716;2024-01-11T05:24:03;30.47;;;16.80;;
22543;SDS011;11438;52.044;8.716;2024-01-11T05:26:28;36.80;;;17.97;;
22543;SDS011;11438;52.044;8.716;2024-01-11T05:28:54;33.77;;;17.70;;
22543;SDS011;11438;52.044;8.716;2024-01-11T05:31:19;36.87;;;17.20;;
22543;SDS011;11438;52.044;8.716;2024-01-11T05:33:45;29.00;;;16.90;;
22543;SDS011;11438;52.044;8.716;2024-01-11T05:36:11;33.47;;;16.60;;
22543;SDS011;11438;52.044;8.716;2024-01-11T05:38:38;37.87;;;18.37;;
22543;SDS011;11438;52.044;8.716;2024-01-11T05:41:18;36.60;;;17.97;;
22543;SDS011;11438;52.044;8.716;2024-01-11T05:43:43;33.80;;;17.30;;
22543;SDS011;11438;52.044;8.716;2024-01-11T05:46:09;33.13;;;17.33;;
22543;SDS011;11438;52.044;8.716;2024-01-11T05:48:34;33.93;;;17.33;;
22543;SDS011;11438;52.044;8.716;2024-01-11T05:51:00;32.50;;;17.53;;
22543;SDS011;11438;52.044;8.716;2024-01-11T05:55:55;33.83;;;17.27;;
22543;SDS011;11438;52.044;8.716;2024-01-11T05:58:21;35.37;;;17.97;;
22543;SDS011;11438;52.044;8.716;2024-01-11T06:00:46;32.40;;;17.30;;
22543;SDS011;11438;52.044;8.716;2024-01-11T06:03:12;38.70;;;19.67;;
22543;SDS011;11438;52.044;8.716;2024-01-11T06:05:38;37.87;;;18.63;;
22543;SDS011;11438;52.044;8.716;2024-01-11T06:08:04;38.30;;;18.90;;
22543;SDS011;11438;52.044;8.716;2024-01-11T06:10:30;40.00;;;18.47;;
22543;SDS011;11438;52.044;8.716;2024-01-11T06:12:56;35.10;;;17.67;;
22543;SDS011;11438;52.044;8.716;2024-01-11T06:15:21;32.07;;;16.47;;
22543;SDS011;11438;52.044;8.716;2024-01-11T06:17:47;35.73;;;18.17;;
22543;SDS011;11438;52.044;8.716;2024-01-11T06:20:12;34.93;;;17.23;;
22543;SDS011;11438;52.044;8.716;2024-01-11T06:22:38;33.87;;;17.53;;
22543;SDS011;11438;52.044;8.716;2024-01-11T06:25:03;33.90;;;17.67;;
22543;SDS011;11438;52.044;8.716;2024-01-11T06:27:29;33.57;;;17.23;;
22543;SDS011;11438;52.044;8.716;2024-01-11T06:29:54;30.53;;;16.13;;
22543;SDS011;11438;52.044;8.716;2024-01-11T06:32:20;31.80;;;17.13;;
22543;SDS011;11438;52.044;8.716;2024-01-11T06:34:46;34.93;;;16.50;;
22543;SDS011;11438;52.044;8.716;2024-01-11T06:37:12;36.23;;;17.07;;
22543;SDS011;11438;52.044;8.716;2024-01-11T06:39:38;35.13;;;17.50;;
22543;SDS011;11438;52.044;8.716;2024-01-11T06:42:03;30.63;;;16.70;;
22543;SDS011;11438;52.044;8.716;2024-01-11T06:44:29;29.03;;;15.77;;
22543;SDS011;11438;52.044;8.716;2024-01-11T06:46:55;35.60;;;17.30;;
22543;SDS011;11438;52.044;8.716;2024-01-11T06:49:21;31.07;;;16.60;;
22543;SDS011;11438;52.044;8.716;2024-01-11T06:51:46;33.17;;;16.87;;
22543;SDS011;11438;52.044;8.716;2024-01-11T06:54:12;30.20;;;17.47;;
22543;SDS011;11438;52.044;8.716;2024-01-11T06:56:37;38.50;;;19.10;;
22543;SDS011;11438;52.044;8.716;2024-01-11T06:59:03;36.43;;;18.80;;
22543;SDS011;11438;52.044;8.716;2024-01-11T07:01:29;37.67;;;17.80;;
22543;SDS011;11438;52.044;8.716;2024-01-11T07:03:54;33.57;;;17.80;;
22543;SDS011;11438;52.044;8.716;2024-01-11T07:06:20;31.53;;;16.33;;
22543;SDS011;11438;52.044;8.716;2024-01-11T07:08:45;35.23;;;17.63;;
22543;SDS011;11438;52.044;8.716;2024-01-11T07:11:11;31.97;;;16.53;;
22543;SDS011;11438;52.044;8.716;2024-01-11T07:13:36;32.47;;;16.50;;
22543;SDS011;11438;52.044;8.716;2024-01-11T07:16:03;36.90;;;17.60;;
22543;SDS011;11438;52.044;8.716;2024-01-11T07:18:28;31.87;;;18.00;;
22543;SDS011;11438;52.044;8.716;2024-01-11T07:20:56;31.87;;;16.80;;
22543;SDS011;11438;52.044;8.716;2024-01-11T07:23:22;32.70;;;17.57;;
22543;SDS011;11438;52.044;8.716;2024-01-11T07:25:47;31.50;;;16.57;;
22543;SDS011;11438;52.044;8.716;2024-01-11T07:28:13;35.47;;;16.80;;
22543;SDS011;11438;52.044;8.716;2024-01-11T07:30:39;31.63;;;15.73;;
22543;SDS011;11438;52.044;8.716;2024-01-11T07:33:04;29.60;;;16.93;;
22543;SDS011;11438;52.044;8.716;2024-01-11T07:35:30;35.53;;;17.80;;
22543;SDS011;11438;52.044;8.716;2024-01-11T07:37:56;33.37;;;16.50;;
22543;SDS011;11438;52.044;8.716;2024-01-11T07:40:22;30.87;;;17.07;;
22543;SDS011;11438;52.044;8.716;2024-01-11T07:42:47;33.93;;;16.67;;
22543;SDS011;11438;52.044;8.716;2024-01-11T07:45:13;32.00;;;16.07;;
22543;SDS011;11438;52.044;8.716;2024-01-11T07:47:42;34.53;;;16.77;;
22543;SDS011;11438;52.044;8.716;2024-01-11T07:50:08;33.30;;;17.30;;
22543;SDS011;11438;52.044;8.716;2024-01-11T07:52:37;29.60;;;15.67;;
22543;SDS011;11438;52.044;8.716;2024-01-11T07:55:04;31.93;;;16.13;;
22543;SDS011;11438;52.044;8.716;2024-01-11T07:57:33;34.33;;;16.33;;
22543;SDS011;11438;52.044;8.716;2024-01-11T08:00:05;27.07;;;15.70;;
22543;SDS011;11438;52.044;8.716;2024-01-11T08:02:33;33.43;;;16.30;;
22543;SDS011;11438;52.044;8.716;2024-01-11T08:04:59;37.67;;;17.03;;
22543;SDS011;11438;52.044;8.716;2024-01-11T08:07:25;32.20;;;16.73;;
22543;SDS011;11438;52.044;8.716;2024-01-11T08:09:51;35.83;;;16.80;;
22543;SDS011;11438;52.044;8.716;2024-01-11T08:12:17;36.80;;;18.50;;
22543;SDS011;11438;52.044;8.716;2024-01-11T08:14:43;36.30;;;18.20;;
22543;SDS011;11438;52.044;8.716;2024-01-11T08:17:08;29.93;;;16.40;;
22543;SDS011;11438;52.044;8.716;2024-01-11T08:19:34;34.60;;;15.60;;
22543;SDS011;11438;52.044;8.716;2024-01-11T08:22:00;36.77;;;18.10;;
22543;SDS011;11438;52.044;8.716;2024-01-11T08:24:26;33.33;;;17.70;;
22543;SDS011;11438;52.044;8.716;2024-01-11T08:26:51;37.07;;;18.77;;
22543;SDS011;11438;52.044;8.716;2024-01-11T08:29:17;35.70;;;20.00;;
22543;SDS011;11438;52.044;8.716;2024-01-11T08:31:44;37.53;;;18.60;;
22543;SDS011;11438;52.044;8.716;2024-01-11T08:34:10;34.60;;;18.63;;
22543;SDS011;11438;52.044;8.716;2024-01-11T08:36:36;37.50;;;17.67;;
22543;SDS011;11438;52.044;8.716;2024-01-11T08:39:03;35.37;;;18.57;;
22543;SDS011;11438;52.044;8.716;2024-01-11T08:41:33;30.47;;;17.03;;
22543;SDS011;11438;52.044;8.716;2024-01-11T08:44:00;37.07;;;18.73;;
22543;SDS011;11438;52.044;8.716;2024-01-11T08:46:27;34.67;;;19.23;;
22543;SDS011;11438;52.044;8.716;2024-01-11T08:48:53;34.23;;;18.93;;
22543;SDS011;11438;52.044;8.716;2024-01-11T08:51:21;36.30;;;17.83;;
22543;SDS011;11438;52.044;8.716;2024-01-11T08:53:46;35.87;;;18.33;;
22543;SDS011;11438;52.044;8.716;2024-01-11T08:56:12;35.60;;;18.87;;
22543;SDS011;11438;52.044;8.716;2024-01-11T08:58:39;36.93;;;18.73;;
22543;SDS011;11438;52.044;8.716;2024-01-11T09:01:05;33.93;;;18.27;;
22543;SDS011;11438;52.044;8.716;2024-01-11T09:03:33;32.57;;;17.90;;
22543;SDS011;11438;52.044;8.716;2024-01-11T09:05:59;35.47;;;19.03;;
22543;SDS011;11438;52.044;8.716;2024-01-11T09:08:24;37.00;;;18.93;;
22543;SDS011;11438;52.044;8.716;2024-01-11T09:10:50;32.47;;;17.63;;
22543;SDS011;11438;52.044;8.716;2024-01-11T09:13:15;33.67;;;17.37;;
22543;SDS011;11438;52.044;8.716;2024-01-11T09:15:41;31.77;;;16.67;;
22543;SDS011;11438;52.044;8.716;2024-01-11T09:18:07;29.60;;;16.13;;
22543;SDS011;11438;52.044;8.716;2024-01-11T09:20:32;28.90;;;15.13;;
22543;SDS011;11438;52.044;8.716;2024-01-11T09:22:59;30.77;;;16.87;;
22543;SDS011;11438;52.044;8.716;2024-01-11T09:25:27;29.90;;;17.90;;
22543;SDS011;11438;52.044;8.716;2024-01-11T09:27:52;29.80;;;17.43;;
22543;SDS011;11438;52.044;8.716;2024-01-11T09:30:18;30.90;;;16.17;;
22543;SDS011;11438;52.044;8.716;2024-01-11T09:32:43;31.00;;;17.03;;
22543;SDS011;11438;52.044;8.716;2024-01-11T09:35:09;30.83;;;16.17;;
22543;SDS011;11438;52.044;8.716;2024-01-11T09:37:35;26.20;;;14.57;;
22543;SDS011;11438;52.044;8.716;2024-01-11T09:40:01;32.27;;;17.23;;
22543;SDS011;11438;52.044;8.716;2024-01-11T09:42:27;31.40;;;16.70;;
22543;SDS011;11438;52.044;8.716;2024-01-11T09:44:53;32.07;;;17.40;;
22543;SDS011;11438;52.044;8.716;2024-01-11T09:47:20;34.97;;;17.53;;
22543;SDS011;11438;52.044;8.716;2024-01-11T09:49:48;29.57;;;17.50;;
22543;SDS011;11438;52.044;8.716;2024-01-11T09:52:16;37.53;;;18.97;;
22543;SDS011;11438;52.044;8.716;2024-01-11T09:54:44;33.73;;;17.70;;
22543;SDS011;11438;52.044;8.716;2024-01-11T09:57:10;34.93;;;18.00;;
22543;SDS011;11438;52.044;8.716;2024-01-11T09:59:36;34.10;;;19.23;;
22543;SDS011;11438;52.044;8.716;2024-01-11T10:02:02;34.07;;;19.07;;
22543;SDS011;11438;52.044;8.716;2024-01-11T10:04:28;35.93;;;19.67;;
22543;SDS011;11438;52.044;8.716;2024-01-11T10:06:54;33.67;;;18.47;;
22543;SDS011;11438;52.044;8.716;2024-01-11T10:09:21;31.37;;;18.03;;
22543;SDS011;11438;52.044;8.716;2024-01-11T10:11:47;32.30;;;18.23;;
22543;SDS011;11438;52.044;8.716;2024-01-11T10:14:14;35.57;;;17.43;;
22543;SDS011;11438;52.044;8.716;2024-01-11T10:16:41;31.97;;;17.93;;
22543;SDS011;11438;52.044;8.716;2024-01-11T10:19:07;32.63;;;18.40;;
22543;SDS011;11438;52.044;8.716;2024-01-11T10:21:34;30.97;;;17.67;;
22543;SDS011;11438;52.044;8.716;2024-01-11T10:24:04;35.17;;;17.60;;
22543;SDS011;11438;52.044;8.716;2024-01-11T10:26:30;34.97;;;17.83;;
22543;SDS011;11438;52.044;8.716;2024-01-11T10:28:58;32.53;;;17.37;;
22543;SDS011;11438;52.044;8.716;2024-01-11T10:31:25;38.70;;;20.23;;
22543;SDS011;11438;52.044;8.716;2024-01-11T10:33:53;31.17;;;17.77;;
22543;SDS011;11438;52.044;8.716;2024-01-11T10:36:19;34.20;;;18.37;;
22543;SDS011;11438;52.044;8.716;2024-01-11T10:38:44;31.07;;;16.53;;
22543;SDS011;11438;52.044;8.716;2024-01-11T10:41:12;29.33;;;17.30;;
22543;SDS011;11438;52.044;8.716;2024-01-11T10:43:39;29.20;;;17.17;;
22543;SDS011;11438;52.044;8.716;2024-01-11T10:46:06;28.00;;;16.00;;
22543;SDS011;11438;52.044;8.716;2024-01-11T10:48:38;29.90;;;17.07;;
22543;SDS011;11438;52.044;8.716;2024-01-11T10:51:05;32.80;;;18.07;;
22543;SDS011;11438;52.044;8.716;2024-01-11T10:53:41;32.23;;;17.93;;
22543;SDS011;11438;52.044;8.716;2024-01-11T10:56:12;30.17;;;15.50;;
22543;SDS011;11438;52.044;8.716;2024-01-11T10:58:39;30.93;;;16.83;;
22543;SDS011;11438;52.044;8.716;2024-01-11T11:01:06;33.07;;;18.37;;
22543;SDS011;11438;52.044;8.716;2024-01-11T11:03:33;35.97;;;18.70;;
22543;SDS011;11438;52.044;8.716;2024-01-11T11:06:00;30.10;;;17.13;;
22543;SDS011;11438;52.044;8.716;2024-01-11T11:08:26;33.43;;;17.60;;
22543;SDS011;11438;52.044;8.716;2024-01-11T11:10:59;33.00;;;17.77;;
22543;SDS011;11438;52.044;8.716;2024-01-11T11:13:28;31.70;;;16.67;;
22543;SDS011;11438;52.044;8.716;2024-01-11T11:15:53;30.93;;;17.30;;
22543;SDS011;11438;52.044;8.716;2024-01-11T11:18:22;29.43;;;16.67;;
22543;SDS011;11438;52.044;8.716;2024-01-11T11:20:47;33.50;;;16.37;;
22543;SDS011;11438;52.044;8.716;2024-01-11T11:23:17;28.33;;;15.27;;
22543;SDS011;11438;52.044;8.716;2024-01-11T11:25:46;24.37;;;14.03;;
22543;SDS011;11438;52.044;8.716;2024-01-11T11:28:13;25.53;;;14.03;;
22543;SDS011;11438;52.044;8.716;2024-01-11T11:30:43;27.03;;;14.43;;
22543;SDS011;11438;52.044;8.716;2024-01-11T11:35:54;21.87;;;13.30;;
22543;SDS011;11438;52.044;8.716;2024-01-11T11:38:22;29.23;;;14.93;;
22543;SDS011;11438;52.044;8.716;2024-01-11T11:40:51;27.27;;;14.80;;
22543;SDS011;11438;52.044;8.716;2024-01-11T11:43:18;28.47;;;15.13;;
22543;SDS011;11438;52.044;8.716;2024-01-11T11:45:47;30.07;;;15.83;;
22543;SDS011;11438;52.044;8.716;2024-01-11T11:53:38;29.80;;;15.40;;
22543;SDS011;11438;52.044;8.716;2024-01-11T11:56:05;25.63;;;14.70;;
22543;SDS011;11438;52.044;8.716;2024-01-11T11:58:32;33.80;;;16.07;;
22543;SDS011;11438;52.044;8.716;2024-01-11T12:00:59;27.03;;;14.83;;
22543;SDS011;11438;52.044;8.716;2024-01-11T12:03:31;32.17;;;16.20;;
22543;SDS011;11438;52.044;8.716;2024-01-11T12:06:05;28.83;;;16.00;;
22543;SDS011;11438;52.044;8.716;2024-01-11T12:08:33;31.87;;;18.07;;
22543;SDS011;11438;52.044;8.716;2024-01-11T12:11:00;34.27;;;18.53;;
22543;SDS011;11438;52.044;8.716;2024-01-11T12:13:26;31.40;;;17.93;;
22543;SDS011;11438;52.044;8.716;2024-01-11T12:15:52;32.90;;;17.53;;
22543;SDS011;11438;52.044;8.716;2024-01-11T12:18:17;28.93;;;16.20;;
22543;SDS011;11438;52.044;8.716;2024-01-11T12:20:43;30.00;;;18.07;;
22543;SDS011;11438;52.044;8.716;2024-01-11T12:23:09;30.47;;;16.63;;
22543;SDS011;11438;52.044;8.716;2024-01-11T12:25:35;32.43;;;16.47;;
22543;SDS011;11438;52.044;8.716;2024-01-11T12:28:01;34.40;;;17.93;;
22543;SDS011;11438;52.044;8.716;2024-01-11T12:30:27;38.37;;;19.97;;
22543;SDS011;11438;52.044;8.716;2024-01-11T12:32:54;33.97;;;18.47;;
22543;SDS011;11438;52.044;8.716;2024-01-11T12:35:20;36.00;;;17.67;;
22543;SDS011;11438;52.044;8.716;2024-01-11T12:37:52;31.37;;;18.70;;
22543;SDS011;11438;52.044;8.716;2024-01-11T12:40:18;35.50;;;18.37;;
22543;SDS011;11438;52.044;8.716;2024-01-11T12:42:44;33.50;;;18.23;;
22543;SDS011;11438;52.044;8.716;2024-01-11T12:45:09;32.70;;;16.63;;
22543;SDS011;11438;52.044;8.716;2024-01-11T12:47:35;34.47;;;18.23;;
22543;SDS011;11438;52.044;8.716;2024-01-11T12:50:02;35.80;;;18.53;;
22543;SDS011;11438;52.044;8.716;2024-01-11T12:52:28;34.97;;;18.00;;
22543;SDS011;11438;52.044;8.716;2024-01-11T12:54:55;32.57;;;17.80;;
22543;SDS011;11438;52.044;8.716;2024-01-11T12:57:21;32.80;;;17.53;;
22543;SDS011;11438;52.044;8.716;2024-01-11T12:59:47;33.40;;;16.90;;
22543;SDS011;11438;52.044;8.716;2024-01-11T13:02:13;32.40;;;17.00;;
22543;SDS011;11438;52.044;8.716;2024-01-11T13:04:40;32.00;;;16.60;;
22543;SDS011;11438;52.044;8.716;2024-01-11T13:07:09;35.50;;;17.17;;
22543;SDS011;11438;52.044;8.716;2024-01-11T13:09:35;34.60;;;18.23;;
22543;SDS011;11438;52.044;8.716;2024-01-11T13:12:00;34.53;;;16.30;;
22543;SDS011;11438;52.044;8.716;2024-01-11T13:14:26;32.37;;;16.50;;
22543;SDS011;11438;52.044;8.716;2024-01-11T13:16:53;31.03;;;15.67;;
22543;SDS011;11438;52.044;8.716;2024-01-11T13:19:19;34.23;;;16.20;;
22543;SDS011;11438;52.044;8.716;2024-01-11T13:21:45;36.23;;;17.43;;
22543;SDS011;11438;52.044;8.716;2024-01-11T13:24:10;34.23;;;16.47;;
22543;SDS011;11438;52.044;8.716;2024-01-11T13:26:38;37.03;;;17.60;;
22543;SDS011;11438;52.044;8.716;2024-01-11T13:29:04;32.93;;;15.97;;
22543;SDS011;11438;52.044;8.716;2024-01-11T13:31:32;34.23;;;17.10;;
22543;SDS011;11438;52.044;8.716;2024-01-11T13:33:58;33.57;;;16.03;;
22543;SDS011;11438;52.044;8.716;2024-01-11T13:36:24;30.10;;;15.87;;
22543;SDS011;11438;52.044;8.716;2024-01-11T13:38:50;32.20;;;17.10;;
22543;SDS011;11438;52.044;8.716;2024-01-11T13:41:16;30.83;;;15.67;;
22543;SDS011;11438;52.044;8.716;2024-01-11T13:43:42;34.63;;;16.23;;
22543;SDS011;11438;52.044;8.716;2024-01-11T13:46:08;36.77;;;17.00;;
22543;SDS011;11438;52.044;8.716;2024-01-11T13:48:34;36.93;;;17.43;;
22543;SDS011;11438;52.044;8.716;2024-01-11T13:51:00;37.40;;;17.23;;
22543;SDS011;11438;52.044;8.716;2024-01-11T13:53:27;31.33;;;15.93;;
22543;SDS011;11438;52.044;8.716;2024-01-11T13:55:53;30.23;;;15.93;;
22543;SDS011;11438;52.044;8.716;2024-01-11T13:58:18;35.27;;;17.00;;
22543;SDS011;11438;52.044;8.716;2024-01-11T14:00:44;31.23;;;15.10;;
22543;SDS011;11438;52.044;8.716;2024-01-11T14:03:09;31.37;;;16.10;;
22543;SDS011;11438;52.044;8.716;2024-01-11T14:05:36;30.10;;;14.70;;
22543;SDS011;11438;52.044;8.716;2024-01-11T14:08:02;30.97;;;15.57;;
22543;SDS011;11438;52.044;8.716;2024-01-11T14:10:30;31.93;;;14.33;;
22543;SDS011;11438;52.044;8.716;2024-01-11T14:13:00;32.53;;;15.00;;
22543;SDS011;11438;52.044;8.716;2024-01-11T14:15:26;32.23;;;15.60;;
22543;SDS011;11438;52.044;8.716;2024-01-11T14:17:52;30.63;;;14.87;;
22543;SDS011;11438;52.044;8.716;2024-01-11T14:20:18;33.27;;;14.90;;
22543;SDS011;11438;52.044;8.716;2024-01-11T14:22:44;32.03;;;14.23;;
22543;SDS011;11438;52.044;8.716;2024-01-11T14:25:15;34.60;;;14.67;;